sensor_id;sensor_type;location;lat;lon;timestamp;P1;durP1;ratioP1;P2;durP2;ratioP2
35835;SDS011;21955;50.580;7.228;2022-11-15T00:01:23;15.70;;;7.82;;
35835;SDS011;21955;50.580;7.228;2022-11-15T00:03:51;16.67;;;7.80;;
35835;SDS011;21955;50.580;7.228;2022-11-15T00:06:18;15.55;;;7.82;;
35835;SDS011;21955;50.580;7.228;2022-11-15T00:08:45;16.65;;;8.05;;
35835;SDS011;21955;50.580;7.228;2022-11-15T00:11:12;12.57;;;8.05;;
35835;SDS011;21955;50.580;7.228;2022-11-15T00:13:40;15.20;;;8.07;;
35835;SDS011;21955;50.580;7.228;2022-11-15T00:16:08;15.45;;;8.38;;
35835;SDS011;21955;50.580;7.228;2022-11-15T00:18:36;15.10;;;8.82;;
35835;SDS011;21955;50.580;7.228;2022-11-15T00:21:06;15.70;;;9.27;;
35835;SDS011;21955;50.580;7.228;2022-11-15T00:23:34;16.25;;;8.65;;
35835;SDS011;21955;50.580;7.228;2022-11-15T00:26:01;17.95;;;8.52;;
35835;SDS011;21955;50.580;7.228;2022-11-15T00:28:28;13.60;;;8.27;;
35835;SDS011;21955;50.580;7.228;2022-11-15T00:31:00;15.67;;;8.13;;
35835;SDS011;21955;50.580;7.228;2022-11-15T00:33:28;16.17;;;8.38;;
35835;SDS011;21955;50.580;7.228;2022-11-15T00:35:59;15.80;;;8.80;;
35835;SDS011;21955;50.580;7.228;2022-11-15T00:38:29;15.68;;;8.68;;
35835;SDS011;21955;50.580;7.228;2022-11-15T00:40:56;15.03;;;8.43;;
35835;SDS011;21955;50.580;7.228;2022-11-15T00:43:24;14.90;;;8.20;;
35835;SDS011;21955;50.580;7.228;2022-11-15T00:45:51;15.07;;;8.07;;
35835;SDS011;21955;50.580;7.228;2022-11-15T00:48:19;15.03;;;8.10;;
35835;SDS011;21955;50.580;7.228;2022-11-15T00:50:46;14.38;;;7.38;;
35835;SDS011;21955;50.580;7.228;2022-11-15T00:53:13;13.68;;;7.22;;
35835;SDS011;21955;50.580;7.228;2022-11-15T00:55:40;11.17;;;6.63;;
35835;SDS011;21955;50.580;7.228;2022-11-15T00:58:07;11.50;;;6.72;;
35835;SDS011;21955;50.580;7.228;2022-11-15T01:00:35;12.43;;;6.82;;
35835;SDS011;21955;50.580;7.228;2022-11-15T01:03:02;12.95;;;6.97;;
35835;SDS011;21955;50.580;7.228;2022-11-15T01:05:30;13.38;;;6.95;;
35835;SDS011;21955;50.580;7.228;2022-11-15T01:07:57;10.23;;;6.37;;
35835;SDS011;21955;50.580;7.228;2022-11-15T01:10:25;11.63;;;6.57;;
35835;SDS011;21955;50.580;7.228;2022-11-15T01:12:52;13.18;;;6.43;;
35835;SDS011;21955;50.580;7.228;2022-11-15T01:15:19;11.98;;;6.57;;
35835;SDS011;21955;50.580;7.228;2022-11-15T01:17:46;11.77;;;6.80;;
35835;SDS011;21955;50.580;7.228;2022-11-15T01:20:13;12.85;;;7.10;;
35835;SDS011;21955;50.580;7.228;2022-11-15T01:22:42;11.45;;;6.93;;
35835;SDS011;21955;50.580;7.228;2022-11-15T01:25:09;13.93;;;7.70;;
35835;SDS011;21955;50.580;7.228;2022-11-15T01:27:36;14.85;;;7.15;;
35835;SDS011;21955;50.580;7.228;2022-11-15T01:30:03;14.38;;;6.90;;
35835;SDS011;21955;50.580;7.228;2022-11-15T01:32:31;14.00;;;7.10;;
35835;SDS011;21955;50.580;7.228;2022-11-15T01:34:58;13.03;;;7.50;;
35835;SDS011;21955;50.580;7.228;2022-11-15T01:37:25;14.30;;;7.60;;
35835;SDS011;21955;50.580;7.228;2022-11-15T01:39:53;12.80;;;7.50;;
35835;SDS011;21955;50.580;7.228;2022-11-15T01:42:20;12.40;;;7.90;;
35835;SDS011;21955;50.580;7.228;2022-11-15T01:44:48;13.18;;;7.45;;
35835;SDS011;21955;50.580;7.228;2022-11-15T01:47:15;15.68;;;7.88;;
35835;SDS011;21955;50.580;7.228;2022-11-15T01:49:45;13.23;;;7.40;;
35835;SDS011;21955;50.580;7.228;2022-11-15T01:52:15;11.40;;;7.00;;
35835;SDS011;21955;50.580;7.228;2022-11-15T01:54:43;11.70;;;6.90;;
35835;SDS011;21955;50.580;7.228;2022-11-15T01:57:11;12.35;;;6.60;;
35835;SDS011;21955;50.580;7.228;2022-11-15T01:59:40;11.50;;;6.63;;
35835;SDS011;21955;50.580;7.228;2022-11-15T02:02:08;12.02;;;6.70;;
35835;SDS011;21955;50.580;7.228;2022-11-15T02:04:36;9.55;;;6.15;;
35835;SDS011;21955;50.580;7.228;2022-11-15T02:07:04;11.07;;;6.38;;
35835;SDS011;21955;50.580;7.228;2022-11-15T02:09:32;10.82;;;6.20;;
35835;SDS011;21955;50.580;7.228;2022-11-15T02:11:59;11.20;;;6.38;;
35835;SDS011;21955;50.580;7.228;2022-11-15T02:14:27;10.23;;;6.25;;
35835;SDS011;21955;50.580;7.228;2022-11-15T02:16:57;10.37;;;5.90;;
35835;SDS011;21955;50.580;7.228;2022-11-15T02:19:29;10.80;;;6.07;;
35835;SDS011;21955;50.580;7.228;2022-11-15T02:22:07;9.30;;;5.85;;
35835;SDS011;21955;50.580;7.228;2022-11-15T02:27:30;10.38;;;5.90;;
35835;SDS011;21955;50.580;7.228;2022-11-15T02:32:57;10.45;;;6.35;;
35835;SDS011;21955;50.580;7.228;2022-11-15T02:35:28;10.43;;;6.00;;
35835;SDS011;21955;50.580;7.228;2022-11-15T02:37:57;10.13;;;6.00;;
35835;SDS011;21955;50.580;7.228;2022-11-15T02:40:27;10.88;;;5.75;;
35835;SDS011;21955;50.580;7.228;2022-11-15T02:43:00;8.70;;;5.80;;
35835;SDS011;21955;50.580;7.228;2022-11-15T02:45:48;8.98;;;5.80;;
35835;SDS011;21955;50.580;7.228;2022-11-15T02:48:19;8.70;;;5.80;;
35835;SDS011;21955;50.580;7.228;2022-11-15T02:50:48;10.20;;;5.38;;
35835;SDS011;21955;50.580;7.228;2022-11-15T02:53:15;11.33;;;5.63;;
35835;SDS011;21955;50.580;7.228;2022-11-15T02:55:43;10.60;;;6.00;;
35835;SDS011;21955;50.580;7.228;2022-11-15T02:58:18;9.57;;;5.53;;
35835;SDS011;21955;50.580;7.228;2022-11-15T03:00:48;12.20;;;5.47;;
35835;SDS011;21955;50.580;7.228;2022-11-15T03:03:23;9.40;;;5.50;;
35835;SDS011;21955;50.580;7.228;2022-11-15T03:05:56;8.00;;;5.43;;
35835;SDS011;21955;50.580;7.228;2022-11-15T03:08:26;8.27;;;5.47;;
35835;SDS011;21955;50.580;7.228;2022-11-15T03:10:59;8.35;;;5.45;;
35835;SDS011;21955;50.580;7.228;2022-11-15T03:13:30;9.07;;;5.68;;
35835;SDS011;21955;50.580;7.228;2022-11-15T03:16:02;9.18;;;5.40;;
35835;SDS011;21955;50.580;7.228;2022-11-15T03:18:32;9.10;;;5.70;;
35835;SDS011;21955;50.580;7.228;2022-11-15T03:20:59;10.75;;;6.25;;
35835;SDS011;21955;50.580;7.228;2022-11-15T03:23:27;10.93;;;5.87;;
35835;SDS011;21955;50.580;7.228;2022-11-15T03:25:55;11.27;;;6.20;;
35835;SDS011;21955;50.580;7.228;2022-11-15T03:28:23;10.98;;;6.07;;
35835;SDS011;21955;50.580;7.228;2022-11-15T03:30:51;7.77;;;5.47;;
35835;SDS011;21955;50.580;7.228;2022-11-15T03:33:20;10.55;;;5.85;;
35835;SDS011;21955;50.580;7.228;2022-11-15T03:35:49;10.88;;;5.78;;
35835;SDS011;21955;50.580;7.228;2022-11-15T03:38:17;12.77;;;6.03;;
35835;SDS011;21955;50.580;7.228;2022-11-15T03:40:47;10.52;;;5.85;;
35835;SDS011;21955;50.580;7.228;2022-11-15T03:43:19;8.98;;;6.00;;
35835;SDS011;21955;50.580;7.228;2022-11-15T03:45:49;8.50;;;6.00;;
35835;SDS011;21955;50.580;7.228;2022-11-15T03:48:18;12.18;;;5.85;;
35835;SDS011;21955;50.580;7.228;2022-11-15T03:50:47;8.68;;;5.40;;
35835;SDS011;21955;50.580;7.228;2022-11-15T03:53:16;8.70;;;5.90;;
35835;SDS011;21955;50.580;7.228;2022-11-15T03:55:43;9.63;;;6.00;;
35835;SDS011;21955;50.580;7.228;2022-11-15T03:58:10;8.00;;;5.35;;
35835;SDS011;21955;50.580;7.228;2022-11-15T04:00:37;9.35;;;5.15;;
35835;SDS011;21955;50.580;7.228;2022-11-15T04:03:04;9.63;;;5.20;;
35835;SDS011;21955;50.580;7.228;2022-11-15T04:05:38;10.73;;;5.63;;
35835;SDS011;21955;50.580;7.228;2022-11-15T04:08:05;11.32;;;5.95;;
35835;SDS011;21955;50.580;7.228;2022-11-15T04:10:33;10.43;;;6.28;;
35835;SDS011;21955;50.580;7.228;2022-11-15T04:13:01;11.27;;;6.25;;
35835;SDS011;21955;50.580;7.228;2022-11-15T04:15:29;10.63;;;6.60;;
35835;SDS011;21955;50.580;7.228;2022-11-15T04:17:56;12.30;;;6.50;;
35835;SDS011;21955;50.580;7.228;2022-11-15T04:20:24;10.73;;;6.50;;
35835;SDS011;21955;50.580;7.228;2022-11-15T04:23:10;9.05;;;6.28;;
35835;SDS011;21955;50.580;7.228;2022-11-15T04:25:57;10.85;;;6.10;;
35835;SDS011;21955;50.580;7.228;2022-11-15T04:28:25;10.60;;;5.68;;
35835;SDS011;21955;50.580;7.228;2022-11-15T04:30:52;8.57;;;5.35;;
35835;SDS011;21955;50.580;7.228;2022-11-15T04:33:19;7.82;;;5.32;;
35835;SDS011;21955;50.580;7.228;2022-11-15T04:35:46;9.50;;;5.28;;
35835;SDS011;21955;50.580;7.228;2022-11-15T04:38:34;7.82;;;5.05;;
35835;SDS011;21955;50.580;7.228;2022-11-15T04:41:01;7.88;;;5.22;;
35835;SDS011;21955;50.580;7.228;2022-11-15T04:43:29;8.35;;;5.07;;
35835;SDS011;21955;50.580;7.228;2022-11-15T04:45:56;8.82;;;4.93;;
35835;SDS011;21955;50.580;7.228;2022-11-15T04:48:23;8.88;;;4.80;;
35835;SDS011;21955;50.580;7.228;2022-11-15T04:50:50;8.45;;;5.13;;
35835;SDS011;21955;50.580;7.228;2022-11-15T04:53:17;7.65;;;5.10;;
35835;SDS011;21955;50.580;7.228;2022-11-15T04:55:44;11.47;;;5.13;;
35835;SDS011;21955;50.580;7.228;2022-11-15T04:58:13;8.73;;;5.07;;
35835;SDS011;21955;50.580;7.228;2022-11-15T05:00:40;7.13;;;4.38;;
35835;SDS011;21955;50.580;7.228;2022-11-15T05:03:08;8.45;;;4.63;;
35835;SDS011;21955;50.580;7.228;2022-11-15T05:05:53;9.00;;;4.72;;
35835;SDS011;21955;50.580;7.228;2022-11-15T05:08:20;7.55;;;4.45;;
35835;SDS011;21955;50.580;7.228;2022-11-15T05:10:47;6.55;;;4.25;;
35835;SDS011;21955;50.580;7.228;2022-11-15T05:13:16;7.72;;;4.43;;
35835;SDS011;21955;50.580;7.228;2022-11-15T05:15:43;7.67;;;4.70;;
35835;SDS011;21955;50.580;7.228;2022-11-15T05:18:10;8.88;;;4.68;;
35835;SDS011;21955;50.580;7.228;2022-11-15T05:20:37;7.07;;;4.25;;
35835;SDS011;21955;50.580;7.228;2022-11-15T05:23:04;7.15;;;4.38;;
35835;SDS011;21955;50.580;7.228;2022-11-15T05:25:31;6.03;;;4.30;;
35835;SDS011;21955;50.580;7.228;2022-11-15T05:27:58;7.97;;;4.20;;
35835;SDS011;21955;50.580;7.228;2022-11-15T05:30:27;6.57;;;3.95;;
35835;SDS011;21955;50.580;7.228;2022-11-15T05:32:54;6.32;;;4.03;;
35835;SDS011;21955;50.580;7.228;2022-11-15T05:35:23;6.55;;;4.20;;
35835;SDS011;21955;50.580;7.228;2022-11-15T05:37:53;5.90;;;3.80;;
35835;SDS011;21955;50.580;7.228;2022-11-15T05:40:20;6.45;;;4.00;;
35835;SDS011;21955;50.580;7.228;2022-11-15T05:42:48;6.03;;;3.78;;
35835;SDS011;21955;50.580;7.228;2022-11-15T05:45:15;6.05;;;3.60;;
35835;SDS011;21955;50.580;7.228;2022-11-15T05:47:44;5.37;;;3.40;;
35835;SDS011;21955;50.580;7.228;2022-11-15T05:50:11;6.78;;;3.67;;
35835;SDS011;21955;50.580;7.228;2022-11-15T05:52:39;7.03;;;3.67;;
35835;SDS011;21955;50.580;7.228;2022-11-15T05:55:07;6.93;;;3.72;;
35835;SDS011;21955;50.580;7.228;2022-11-15T05:57:35;6.75;;;3.70;;
35835;SDS011;21955;50.580;7.228;2022-11-15T06:00:03;7.18;;;4.30;;
35835;SDS011;21955;50.580;7.228;2022-11-15T06:02:30;5.90;;;3.70;;
35835;SDS011;21955;50.580;7.228;2022-11-15T06:04:59;6.78;;;3.80;;
35835;SDS011;21955;50.580;7.228;2022-11-15T06:07:26;7.50;;;3.80;;
35835;SDS011;21955;50.580;7.228;2022-11-15T06:09:53;6.97;;;3.97;;
35835;SDS011;21955;50.580;7.228;2022-11-15T06:12:20;6.55;;;4.15;;
35835;SDS011;21955;50.580;7.228;2022-11-15T06:14:47;4.88;;;3.63;;
35835;SDS011;21955;50.580;7.228;2022-11-15T06:17:14;7.35;;;3.50;;
35835;SDS011;21955;50.580;7.228;2022-11-15T06:19:41;5.63;;;3.40;;
35835;SDS011;21955;50.580;7.228;2022-11-15T06:22:10;7.10;;;3.53;;
35835;SDS011;21955;50.580;7.228;2022-11-15T06:24:37;4.60;;;3.30;;
35835;SDS011;21955;50.580;7.228;2022-11-15T06:27:04;5.70;;;3.50;;
35835;SDS011;21955;50.580;7.228;2022-11-15T06:29:33;7.30;;;3.60;;
35835;SDS011;21955;50.580;7.228;2022-11-15T06:32:00;6.15;;;4.00;;
35835;SDS011;21955;50.580;7.228;2022-11-15T06:34:27;5.70;;;3.78;;
35835;SDS011;21955;50.580;7.228;2022-11-15T06:36:54;5.78;;;3.70;;
35835;SDS011;21955;50.580;7.228;2022-11-15T06:39:22;8.65;;;3.75;;
35835;SDS011;21955;50.580;7.228;2022-11-15T06:41:50;6.53;;;3.92;;
35835;SDS011;21955;50.580;7.228;2022-11-15T06:44:17;6.30;;;3.83;;
35835;SDS011;21955;50.580;7.228;2022-11-15T06:46:44;5.90;;;3.90;;
35835;SDS011;21955;50.580;7.228;2022-11-15T06:49:11;7.18;;;3.50;;
35835;SDS011;21955;50.580;7.228;2022-11-15T06:51:38;5.25;;;3.50;;
35835;SDS011;21955;50.580;7.228;2022-11-15T06:54:05;6.37;;;3.70;;
35835;SDS011;21955;50.580;7.228;2022-11-15T06:56:34;8.48;;;3.50;;
35835;SDS011;21955;50.580;7.228;2022-11-15T06:59:01;5.97;;;3.20;;
35835;SDS011;21955;50.580;7.228;2022-11-15T07:01:29;5.00;;;3.30;;
35835;SDS011;21955;50.580;7.228;2022-11-15T07:03:56;5.93;;;3.50;;
35835;SDS011;21955;50.580;7.228;2022-11-15T07:06:23;5.93;;;3.20;;
35835;SDS011;21955;50.580;7.228;2022-11-15T07:08:50;5.55;;;3.13;;
35835;SDS011;21955;50.580;7.228;2022-11-15T07:11:17;6.63;;;3.40;;
35835;SDS011;21955;50.580;7.228;2022-11-15T07:13:45;5.63;;;3.63;;
35835;SDS011;21955;50.580;7.228;2022-11-15T07:16:13;7.63;;;3.83;;
35835;SDS011;21955;50.580;7.228;2022-11-15T07:18:40;6.65;;;3.45;;
35835;SDS011;21955;50.580;7.228;2022-11-15T07:21:08;7.07;;;3.70;;
35835;SDS011;21955;50.580;7.228;2022-11-15T07:23:36;6.80;;;3.75;;
35835;SDS011;21955;50.580;7.228;2022-11-15T07:26:03;6.47;;;3.97;;
35835;SDS011;21955;50.580;7.228;2022-11-15T07:28:30;7.75;;;3.95;;
35835;SDS011;21955;50.580;7.228;2022-11-15T07:31:01;7.20;;;4.07;;
35835;SDS011;21955;50.580;7.228;2022-11-15T07:33:28;7.00;;;3.95;;
35835;SDS011;21955;50.580;7.228;2022-11-15T07:35:57;6.07;;;3.78;;
35835;SDS011;21955;50.580;7.228;2022-11-15T07:38:26;7.65;;;3.80;;
35835;SDS011;21955;50.580;7.228;2022-11-15T07:40:55;6.90;;;3.88;;
35835;SDS011;21955;50.580;7.228;2022-11-15T07:43:23;6.78;;;4.05;;
35835;SDS011;21955;50.580;7.228;2022-11-15T07:45:50;7.15;;;3.47;;
35835;SDS011;21955;50.580;7.228;2022-11-15T07:48:18;6.68;;;3.63;;
35835;SDS011;21955;50.580;7.228;2022-11-15T07:50:45;7.00;;;3.95;;
35835;SDS011;21955;50.580;7.228;2022-11-15T07:53:12;6.95;;;3.47;;
35835;SDS011;21955;50.580;7.228;2022-11-15T07:55:39;7.53;;;3.40;;
35835;SDS011;21955;50.580;7.228;2022-11-15T07:58:08;6.43;;;3.20;;
35835;SDS011;21955;50.580;7.228;2022-11-15T08:00:36;4.88;;;2.80;;
35835;SDS011;21955;50.580;7.228;2022-11-15T08:03:03;5.73;;;2.97;;
35835;SDS011;21955;50.580;7.228;2022-11-15T08:05:32;5.20;;;3.08;;
35835;SDS011;21955;50.580;7.228;2022-11-15T08:08:00;6.55;;;3.40;;
35835;SDS011;21955;50.580;7.228;2022-11-15T08:10:27;4.47;;;2.85;;
35835;SDS011;21955;50.580;7.228;2022-11-15T08:12:58;4.47;;;2.80;;
35835;SDS011;21955;50.580;7.228;2022-11-15T08:15:25;6.22;;;2.90;;
35835;SDS011;21955;50.580;7.228;2022-11-15T08:17:53;7.10;;;2.92;;
35835;SDS011;21955;50.580;7.228;2022-11-15T08:20:20;4.78;;;2.65;;
35835;SDS011;21955;50.580;7.228;2022-11-15T08:22:49;4.18;;;2.70;;
35835;SDS011;21955;50.580;7.228;2022-11-15T08:25:16;5.55;;;2.80;;
35835;SDS011;21955;50.580;7.228;2022-11-15T08:27:43;4.68;;;2.33;;
35835;SDS011;21955;50.580;7.228;2022-11-15T08:30:11;27.30;;;10.57;;
35835;SDS011;21955;50.580;7.228;2022-11-15T08:32:38;10.17;;;4.37;;
35835;SDS011;21955;50.580;7.228;2022-11-15T08:35:06;6.00;;;2.55;;
35835;SDS011;21955;50.580;7.228;2022-11-15T08:37:33;5.95;;;2.60;;
35835;SDS011;21955;50.580;7.228;2022-11-15T08:40:02;4.55;;;2.38;;
35835;SDS011;21955;50.580;7.228;2022-11-15T08:42:29;7.25;;;2.75;;
35835;SDS011;21955;50.580;7.228;2022-11-15T08:44:56;5.45;;;2.50;;
35835;SDS011;21955;50.580;7.228;2022-11-15T08:47:23;5.00;;;2.30;;
35835;SDS011;21955;50.580;7.228;2022-11-15T08:49:51;4.00;;;2.22;;
35835;SDS011;21955;50.580;7.228;2022-11-15T08:52:18;5.60;;;2.03;;
35835;SDS011;21955;50.580;7.228;2022-11-15T08:54:46;5.00;;;1.90;;
35835;SDS011;21955;50.580;7.228;2022-11-15T08:57:15;4.43;;;1.93;;
35835;SDS011;21955;50.580;7.228;2022-11-15T08:59:42;5.32;;;1.90;;
35835;SDS011;21955;50.580;7.228;2022-11-15T09:02:10;4.13;;;1.95;;
35835;SDS011;21955;50.580;7.228;2022-11-15T09:04:39;5.80;;;1.70;;
35835;SDS011;21955;50.580;7.228;2022-11-15T09:07:07;2.10;;;1.30;;
35835;SDS011;21955;50.580;7.228;2022-11-15T09:09:34;4.55;;;1.13;;
35835;SDS011;21955;50.580;7.228;2022-11-15T09:12:01;3.20;;;1.40;;
35835;SDS011;21955;50.580;7.228;2022-11-15T09:14:30;4.88;;;1.45;;
35835;SDS011;21955;50.580;7.228;2022-11-15T09:16:57;3.00;;;1.30;;
35835;SDS011;21955;50.580;7.228;2022-11-15T09:19:24;4.45;;;1.40;;
35835;SDS011;21955;50.580;7.228;2022-11-15T09:21:51;2.30;;;1.40;;
35835;SDS011;21955;50.580;7.228;2022-11-15T09:24:19;3.27;;;1.40;;
35835;SDS011;21955;50.580;7.228;2022-11-15T09:26:46;4.00;;;1.20;;
35835;SDS011;21955;50.580;7.228;2022-11-15T09:29:13;2.22;;;1.10;;
35835;SDS011;21955;50.580;7.228;2022-11-15T09:31:42;3.00;;;0.80;;
35835;SDS011;21955;50.580;7.228;2022-11-15T09:34:09;1.60;;;0.80;;
35835;SDS011;21955;50.580;7.228;2022-11-15T09:36:36;1.70;;;0.90;;
35835;SDS011;21955;50.580;7.228;2022-11-15T09:39:03;2.33;;;0.70;;
35835;SDS011;21955;50.580;7.228;2022-11-15T09:47:17;2.63;;;0.80;;
35835;SDS011;21955;50.580;7.228;2022-11-15T09:49:51;1.95;;;0.88;;
35835;SDS011;21955;50.580;7.228;2022-11-15T09:52:19;3.13;;;0.80;;
35835;SDS011;21955;50.580;7.228;2022-11-15T09:54:48;2.10;;;0.65;;
35835;SDS011;21955;50.580;7.228;2022-11-15T09:57:17;3.40;;;0.73;;
35835;SDS011;21955;50.580;7.228;2022-11-15T09:59:51;1.17;;;0.57;;
35835;SDS011;21955;50.580;7.228;2022-11-15T10:02:29;1.83;;;0.70;;
35835;SDS011;21955;50.580;7.228;2022-11-15T10:04:58;3.05;;;0.70;;
35835;SDS011;21955;50.580;7.228;2022-11-15T10:07:27;2.67;;;0.65;;
35835;SDS011;21955;50.580;7.228;2022-11-15T10:09:55;3.80;;;0.75;;
35835;SDS011;21955;50.580;7.228;2022-11-15T10:12:23;2.53;;;0.80;;
35835;SDS011;21955;50.580;7.228;2022-11-15T10:15:00;1.38;;;0.60;;
35835;SDS011;21955;50.580;7.228;2022-11-15T10:17:42;2.72;;;0.60;;
35835;SDS011;21955;50.580;7.228;2022-11-15T10:20:16;1.90;;;0.90;;
35835;SDS011;21955;50.580;7.228;2022-11-15T10:22:45;2.87;;;0.93;;
35835;SDS011;21955;50.580;7.228;2022-11-15T10:25:16;3.83;;;1.10;;
35835;SDS011;21955;50.580;7.228;2022-11-15T10:27:44;2.15;;;0.93;;
35835;SDS011;21955;50.580;7.228;2022-11-15T10:30:13;3.40;;;0.80;;
35835;SDS011;21955;50.580;7.228;2022-11-15T10:32:42;2.75;;;0.75;;
35835;SDS011;21955;50.580;7.228;2022-11-15T10:35:16;2.63;;;0.80;;
35835;SDS011;21955;50.580;7.228;2022-11-15T10:37:43;2.53;;;0.80;;
35835;SDS011;21955;50.580;7.228;2022-11-15T10:40:15;1.67;;;0.70;;
35835;SDS011;21955;50.580;7.228;2022-11-15T10:42:42;2.53;;;0.90;;
35835;SDS011;21955;50.580;7.228;2022-11-15T10:45:22;3.05;;;0.80;;
35835;SDS011;21955;50.580;7.228;2022-11-15T10:47:51;3.28;;;0.90;;
35835;SDS011;21955;50.580;7.228;2022-11-15T10:50:28;1.53;;;0.70;;
35835;SDS011;21955;50.580;7.228;2022-11-15T10:52:55;2.35;;;0.85;;
35835;SDS011;21955;50.580;7.228;2022-11-15T10:55:24;4.63;;;0.80;;
35835;SDS011;21955;50.580;7.228;2022-11-15T10:57:53;2.72;;;0.90;;
35835;SDS011;21955;50.580;7.228;2022-11-15T11:00:27;2.83;;;1.35;;
35835;SDS011;21955;50.580;7.228;2022-11-15T11:02:58;2.30;;;1.20;;
35835;SDS011;21955;50.580;7.228;2022-11-15T11:05:26;2.58;;;1.10;;
35835;SDS011;21955;50.580;7.228;2022-11-15T11:07:55;4.25;;;1.17;;
35835;SDS011;21955;50.580;7.228;2022-11-15T11:10:23;1.90;;;1.10;;
35835;SDS011;21955;50.580;7.228;2022-11-15T11:12:50;3.33;;;0.90;;
35835;SDS011;21955;50.580;7.228;2022-11-15T11:15:18;3.20;;;1.10;;
35835;SDS011;21955;50.580;7.228;2022-11-15T11:17:50;3.47;;;1.03;;
35835;SDS011;21955;50.580;7.228;2022-11-15T11:20:20;3.00;;;1.27;;
35835;SDS011;21955;50.580;7.228;2022-11-15T11:22:56;3.08;;;1.30;;
35835;SDS011;21955;50.580;7.228;2022-11-15T11:25:28;3.00;;;1.23;;
35835;SDS011;21955;50.580;7.228;2022-11-15T11:27:59;2.95;;;1.20;;
35835;SDS011;21955;50.580;7.228;2022-11-15T11:30:39;3.55;;;1.20;;
35835;SDS011;21955;50.580;7.228;2022-11-15T11:33:10;3.88;;;1.23;;
35835;SDS011;21955;50.580;7.228;2022-11-15T11:35:42;3.22;;;1.33;;
35835;SDS011;21955;50.580;7.228;2022-11-15T11:38:20;3.95;;;1.50;;
35835;SDS011;21955;50.580;7.228;2022-11-15T11:40:57;4.13;;;1.40;;
35835;SDS011;21955;50.580;7.228;2022-11-15T11:43:33;3.42;;;1.40;;
35835;SDS011;21955;50.580;7.228;2022-11-15T11:46:10;4.07;;;1.30;;
35835;SDS011;21955;50.580;7.228;2022-11-15T11:48:41;2.65;;;1.42;;
35835;SDS011;21955;50.580;7.228;2022-11-15T11:51:13;2.10;;;1.40;;
35835;SDS011;21955;50.580;7.228;2022-11-15T11:53:42;2.95;;;1.50;;
35835;SDS011;21955;50.580;7.228;2022-11-15T11:56:15;4.10;;;1.70;;
35835;SDS011;21955;50.580;7.228;2022-11-15T11:58:44;3.55;;;1.60;;
35835;SDS011;21955;50.580;7.228;2022-11-15T12:01:14;3.15;;;1.70;;
35835;SDS011;21955;50.580;7.228;2022-11-15T12:03:43;4.63;;;1.95;;
35835;SDS011;21955;50.580;7.228;2022-11-15T12:06:17;5.53;;;1.80;;
35835;SDS011;21955;50.580;7.228;2022-11-15T12:08:48;3.33;;;1.77;;
35835;SDS011;21955;50.580;7.228;2022-11-15T12:11:17;3.95;;;1.75;;
35835;SDS011;21955;50.580;7.228;2022-11-15T12:13:49;3.00;;;1.60;;
35835;SDS011;21955;50.580;7.228;2022-11-15T12:16:20;3.30;;;1.80;;
35835;SDS011;21955;50.580;7.228;2022-11-15T12:18:49;3.45;;;1.77;;
35835;SDS011;21955;50.580;7.228;2022-11-15T12:21:20;3.20;;;1.77;;
35835;SDS011;21955;50.580;7.228;2022-11-15T12:23:49;3.25;;;1.50;;
35835;SDS011;21955;50.580;7.228;2022-11-15T12:26:18;3.80;;;1.80;;
35835;SDS011;21955;50.580;7.228;2022-11-15T12:28:47;2.22;;;1.50;;
35835;SDS011;21955;50.580;7.228;2022-11-15T12:31:16;4.50;;;1.90;;
35835;SDS011;21955;50.580;7.228;2022-11-15T12:33:46;3.13;;;1.70;;
35835;SDS011;21955;50.580;7.228;2022-11-15T12:39:10;5.13;;;2.03;;
35835;SDS011;21955;50.580;7.228;2022-11-15T12:41:38;5.93;;;1.75;;
35835;SDS011;21955;50.580;7.228;2022-11-15T12:44:10;3.10;;;1.60;;
35835;SDS011;21955;50.580;7.228;2022-11-15T12:52:08;4.25;;;1.65;;
35835;SDS011;21955;50.580;7.228;2022-11-15T12:54:53;3.42;;;1.60;;
35835;SDS011;21955;50.580;7.228;2022-11-15T12:57:28;3.80;;;1.80;;
35835;SDS011;21955;50.580;7.228;2022-11-15T12:59:56;4.43;;;1.60;;
35835;SDS011;21955;50.580;7.228;2022-11-15T13:02:27;2.77;;;1.60;;
35835;SDS011;21955;50.580;7.228;2022-11-15T13:07:56;3.90;;;1.90;;
35835;SDS011;21955;50.580;7.228;2022-11-15T13:10:32;3.88;;;1.98;;
35835;SDS011;21955;50.580;7.228;2022-11-15T13:13:00;5.15;;;1.88;;
35835;SDS011;21955;50.580;7.228;2022-11-15T13:15:31;5.63;;;1.95;;
35835;SDS011;21955;50.580;7.228;2022-11-15T13:18:18;5.95;;;1.80;;
35835;SDS011;21955;50.580;7.228;2022-11-15T13:20:46;6.65;;;3.30;;
35835;SDS011;21955;50.580;7.228;2022-11-15T13:23:14;3.90;;;1.70;;
35835;SDS011;21955;50.580;7.228;2022-11-15T13:25:51;4.72;;;1.75;;
35835;SDS011;21955;50.580;7.228;2022-11-15T13:28:22;3.28;;;1.75;;
35835;SDS011;21955;50.580;7.228;2022-11-15T13:30:52;4.88;;;2.00;;
35835;SDS011;21955;50.580;7.228;2022-11-15T13:33:20;4.93;;;2.47;;
35835;SDS011;21955;50.580;7.228;2022-11-15T13:35:49;6.57;;;3.00;;
35835;SDS011;21955;50.580;7.228;2022-11-15T13:38:18;5.15;;;2.15;;
35835;SDS011;21955;50.580;7.228;2022-11-15T13:40:46;4.57;;;2.43;;
35835;SDS011;21955;50.580;7.228;2022-11-15T13:43:28;4.50;;;1.80;;
35835;SDS011;21955;50.580;7.228;2022-11-15T13:46:06;4.07;;;1.80;;
35835;SDS011;21955;50.580;7.228;2022-11-15T13:48:34;3.05;;;1.50;;
35835;SDS011;21955;50.580;7.228;2022-11-15T13:51:01;3.92;;;1.75;;
35835;SDS011;21955;50.580;7.228;2022-11-15T13:53:30;4.97;;;1.60;;
35835;SDS011;21955;50.580;7.228;2022-11-15T13:55:57;2.95;;;1.50;;
35835;SDS011;21955;50.580;7.228;2022-11-15T13:58:26;3.60;;;1.40;;
35835;SDS011;21955;50.580;7.228;2022-11-15T14:00:58;3.13;;;1.48;;
35835;SDS011;21955;50.580;7.228;2022-11-15T14:03:26;2.47;;;1.33;;
35835;SDS011;21955;50.580;7.228;2022-11-15T14:06:04;4.77;;;1.60;;
35835;SDS011;21955;50.580;7.228;2022-11-15T14:08:33;3.67;;;1.40;;
35835;SDS011;21955;50.580;7.228;2022-11-15T14:11:12;3.75;;;1.42;;
35835;SDS011;21955;50.580;7.228;2022-11-15T14:13:41;2.63;;;1.15;;
35835;SDS011;21955;50.580;7.228;2022-11-15T14:16:13;4.30;;;1.40;;
35835;SDS011;21955;50.580;7.228;2022-11-15T14:18:41;2.83;;;1.23;;
35835;SDS011;21955;50.580;7.228;2022-11-15T14:21:08;3.50;;;1.77;;
35835;SDS011;21955;50.580;7.228;2022-11-15T14:23:36;4.13;;;1.33;;
35835;SDS011;21955;50.580;7.228;2022-11-15T14:26:03;6.38;;;2.28;;
35835;SDS011;21955;50.580;7.228;2022-11-15T14:28:32;5.13;;;2.13;;
35835;SDS011;21955;50.580;7.228;2022-11-15T14:31:06;5.38;;;3.20;;
35835;SDS011;21955;50.580;7.228;2022-11-15T14:33:36;3.22;;;1.88;;
35835;SDS011;21955;50.580;7.228;2022-11-15T14:36:04;5.30;;;1.80;;
35835;SDS011;21955;50.580;7.228;2022-11-15T14:38:32;4.50;;;1.58;;
35835;SDS011;21955;50.580;7.228;2022-11-15T14:40:59;3.70;;;1.40;;
35835;SDS011;21955;50.580;7.228;2022-11-15T14:43:26;4.80;;;1.58;;
35835;SDS011;21955;50.580;7.228;2022-11-15T14:45:54;4.35;;;1.50;;
35835;SDS011;21955;50.580;7.228;2022-11-15T14:48:22;2.33;;;1.40;;
35835;SDS011;21955;50.580;7.228;2022-11-15T14:50:49;3.55;;;1.63;;
35835;SDS011;21955;50.580;7.228;2022-11-15T14:53:17;5.30;;;2.28;;
35835;SDS011;21955;50.580;7.228;2022-11-15T14:55:45;4.38;;;2.30;;
35835;SDS011;21955;50.580;7.228;2022-11-15T14:58:12;5.18;;;1.80;;
35835;SDS011;21955;50.580;7.228;2022-11-15T15:00:40;5.30;;;1.60;;
35835;SDS011;21955;50.580;7.228;2022-11-15T15:03:08;2.80;;;1.48;;
35835;SDS011;21955;50.580;7.228;2022-11-15T15:05:38;3.10;;;1.50;;
35835;SDS011;21955;50.580;7.228;2022-11-15T15:08:06;4.82;;;1.75;;
35835;SDS011;21955;50.580;7.228;2022-11-15T15:10:34;3.13;;;1.70;;
35835;SDS011;21955;50.580;7.228;2022-11-15T15:13:01;4.53;;;1.90;;
35835;SDS011;21955;50.580;7.228;2022-11-15T15:15:33;5.50;;;2.05;;
35835;SDS011;21955;50.580;7.228;2022-11-15T15:18:00;5.05;;;2.40;;
35835;SDS011;21955;50.580;7.228;2022-11-15T15:20:27;5.22;;;2.25;;